Rapid City, South Dakota
Current Conditions -  °F | °C
As of 5:58 AM on Sunday 21 Dec 2014 (Local Time) from KRCA Reporting Station
Clear Clear  
Wind Chill: 25°   Ceiling: Unl
Heat Index: 31°   Visibility: 10mi
Dew Point: 22°   Wind: 6mph
Humidity: 69%   Direction: 200°SSW
Pressure: 29.55"   Gusts: NA
Location:  44.08°N, 103.23°W
Report Text: KRCA 211258Z AUTO 20005KT 10SM CLR M01/M06 A2955 RMK AO2 SLP030 T10061057 $
Loading
Personal Weather Stations






























Interactive Weather Map New forecast layout! Learn more

10-Day Weather Forecast

Advertisements
Track Severe Weather on mobile